sensor_id;sensor_type;location;lat;lon;timestamp;P1;durP1;ratioP1;P2;durP2;ratioP2
41683;SDS011;27369;52.030;4.586;2022-09-21T00:00:43;11.18;;;2.40;;
41683;SDS011;27369;52.030;4.586;2022-09-21T00:03:09;5.63;;;2.25;;
41683;SDS011;27369;52.030;4.586;2022-09-21T00:05:35;7.00;;;2.70;;
41683;SDS011;27369;52.030;4.586;2022-09-21T00:08:01;11.05;;;3.30;;
41683;SDS011;27369;52.030;4.586;2022-09-21T00:10:28;5.20;;;1.90;;
41683;SDS011;27369;52.030;4.586;2022-09-21T00:12:54;6.00;;;2.15;;
41683;SDS011;27369;52.030;4.586;2022-09-21T00:15:21;7.03;;;2.00;;
41683;SDS011;27369;52.030;4.586;2022-09-21T00:20:16;4.25;;;1.88;;
41683;SDS011;27369;52.030;4.586;2022-09-21T00:22:42;4.88;;;1.90;;
41683;SDS011;27369;52.030;4.586;2022-09-21T00:25:08;5.43;;;1.83;;
41683;SDS011;27369;52.030;4.586;2022-09-21T00:27:34;7.13;;;1.75;;
41683;SDS011;27369;52.030;4.586;2022-09-21T00:29:59;4.32;;;1.50;;
41683;SDS011;27369;52.030;4.586;2022-09-21T00:32:27;7.72;;;1.90;;
41683;SDS011;27369;52.030;4.586;2022-09-21T00:34:55;6.72;;;1.55;;
41683;SDS011;27369;52.030;4.586;2022-09-21T00:37:22;3.92;;;1.58;;
41683;SDS011;27369;52.030;4.586;2022-09-21T00:39:48;2.90;;;1.50;;
41683;SDS011;27369;52.030;4.586;2022-09-21T00:42:22;7.07;;;2.42;;
41683;SDS011;27369;52.030;4.586;2022-09-21T00:44:52;5.78;;;1.50;;
41683;SDS011;27369;52.030;4.586;2022-09-21T00:47:20;9.27;;;3.22;;
41683;SDS011;27369;52.030;4.586;2022-09-21T00:49:50;3.85;;;1.35;;
41683;SDS011;27369;52.030;4.586;2022-09-21T00:52:19;6.93;;;2.00;;
41683;SDS011;27369;52.030;4.586;2022-09-21T00:54:50;4.95;;;1.92;;
41683;SDS011;27369;52.030;4.586;2022-09-21T00:57:19;5.88;;;1.98;;
41683;SDS011;27369;52.030;4.586;2022-09-21T00:59:47;2.75;;;1.48;;
41683;SDS011;27369;52.030;4.586;2022-09-21T01:02:16;4.45;;;1.50;;
41683;SDS011;27369;52.030;4.586;2022-09-21T01:04:42;7.57;;;1.65;;
41683;SDS011;27369;52.030;4.586;2022-09-21T01:07:10;5.75;;;1.65;;
41683;SDS011;27369;52.030;4.586;2022-09-21T01:09:42;6.20;;;1.70;;
41683;SDS011;27369;52.030;4.586;2022-09-21T01:17:40;3.58;;;1.67;;
41683;SDS011;27369;52.030;4.586;2022-09-21T01:31:45;4.40;;;2.10;;
41683;SDS011;27369;52.030;4.586;2022-09-21T01:34:26;5.68;;;2.65;;
41683;SDS011;27369;52.030;4.586;2022-09-21T01:36:56;7.43;;;1.95;;
41683;SDS011;27369;52.030;4.586;2022-09-21T01:39:26;6.28;;;2.50;;
41683;SDS011;27369;52.030;4.586;2022-09-21T01:41:54;8.80;;;2.33;;
41683;SDS011;27369;52.030;4.586;2022-09-21T01:44:22;4.20;;;2.08;;
41683;SDS011;27369;52.030;4.586;2022-09-21T01:46:52;10.88;;;2.42;;
41683;SDS011;27369;52.030;4.586;2022-09-21T01:49:30;3.80;;;2.03;;
41683;SDS011;27369;52.030;4.586;2022-09-21T01:52:23;4.00;;;2.10;;
41683;SDS011;27369;52.030;4.586;2022-09-21T01:55:03;3.88;;;2.20;;
41683;SDS011;27369;52.030;4.586;2022-09-21T02:00:07;5.78;;;2.60;;
41683;SDS011;27369;52.030;4.586;2022-09-21T02:02:38;9.82;;;3.05;;
41683;SDS011;27369;52.030;4.586;2022-09-21T02:05:08;8.95;;;3.33;;
41683;SDS011;27369;52.030;4.586;2022-09-21T02:07:35;6.28;;;2.67;;
41683;SDS011;27369;52.030;4.586;2022-09-21T02:10:03;6.72;;;2.83;;
41683;SDS011;27369;52.030;4.586;2022-09-21T02:12:32;7.88;;;2.72;;
41683;SDS011;27369;52.030;4.586;2022-09-21T02:14:58;6.65;;;2.72;;
41683;SDS011;27369;52.030;4.586;2022-09-21T02:17:29;5.13;;;2.65;;
41683;SDS011;27369;52.030;4.586;2022-09-21T02:20:04;5.97;;;2.53;;
41683;SDS011;27369;52.030;4.586;2022-09-21T02:25:17;4.53;;;2.03;;
41683;SDS011;27369;52.030;4.586;2022-09-21T02:28:04;5.53;;;2.55;;
41683;SDS011;27369;52.030;4.586;2022-09-21T02:30:35;5.40;;;2.65;;
41683;SDS011;27369;52.030;4.586;2022-09-21T02:35:34;9.18;;;3.50;;
41683;SDS011;27369;52.030;4.586;2022-09-21T02:43:29;9.32;;;2.97;;
41683;SDS011;27369;52.030;4.586;2022-09-21T02:45:58;5.25;;;3.25;;
41683;SDS011;27369;52.030;4.586;2022-09-21T02:48:32;6.63;;;3.05;;
41683;SDS011;27369;52.030;4.586;2022-09-21T02:51:09;7.18;;;3.22;;
41683;SDS011;27369;52.030;4.586;2022-09-21T02:53:38;6.40;;;2.90;;
41683;SDS011;27369;52.030;4.586;2022-09-21T02:56:06;6.10;;;2.70;;
41683;SDS011;27369;52.030;4.586;2022-09-21T02:58:40;5.50;;;2.67;;
41683;SDS011;27369;52.030;4.586;2022-09-21T03:01:10;4.22;;;2.80;;
41683;SDS011;27369;52.030;4.586;2022-09-21T03:03:37;6.63;;;3.35;;
41683;SDS011;27369;52.030;4.586;2022-09-21T03:06:02;7.53;;;2.97;;
41683;SDS011;27369;52.030;4.586;2022-09-21T03:08:28;8.10;;;3.20;;
41683;SDS011;27369;52.030;4.586;2022-09-21T03:10:54;6.28;;;2.72;;
41683;SDS011;27369;52.030;4.586;2022-09-21T03:13:20;5.32;;;3.00;;
41683;SDS011;27369;52.030;4.586;2022-09-21T03:15:45;5.03;;;2.78;;
41683;SDS011;27369;52.030;4.586;2022-09-21T03:18:11;4.45;;;2.65;;
41683;SDS011;27369;52.030;4.586;2022-09-21T03:20:37;8.10;;;2.60;;
41683;SDS011;27369;52.030;4.586;2022-09-21T03:23:05;8.30;;;2.78;;
41683;SDS011;27369;52.030;4.586;2022-09-21T03:27:57;4.80;;;2.30;;
41683;SDS011;27369;52.030;4.586;2022-09-21T03:30:23;5.95;;;2.78;;
41683;SDS011;27369;52.030;4.586;2022-09-21T03:32:53;8.70;;;3.47;;
41683;SDS011;27369;52.030;4.586;2022-09-21T03:35:20;6.15;;;3.00;;
41683;SDS011;27369;52.030;4.586;2022-09-21T03:37:47;8.60;;;3.28;;
41683;SDS011;27369;52.030;4.586;2022-09-21T03:40:14;11.07;;;3.95;;
41683;SDS011;27369;52.030;4.586;2022-09-21T03:42:40;9.25;;;5.05;;
41683;SDS011;27369;52.030;4.586;2022-09-21T03:45:06;6.78;;;3.88;;
41683;SDS011;27369;52.030;4.586;2022-09-21T03:47:33;8.43;;;4.88;;
41683;SDS011;27369;52.030;4.586;2022-09-21T03:49:59;14.77;;;5.20;;
41683;SDS011;27369;52.030;4.586;2022-09-21T03:52:24;9.38;;;6.60;;
41683;SDS011;27369;52.030;4.586;2022-09-21T03:54:50;12.00;;;6.50;;
41683;SDS011;27369;52.030;4.586;2022-09-21T03:57:16;11.30;;;6.45;;
41683;SDS011;27369;52.030;4.586;2022-09-21T03:59:44;9.15;;;6.15;;
41683;SDS011;27369;52.030;4.586;2022-09-21T04:02:10;12.85;;;6.10;;
41683;SDS011;27369;52.030;4.586;2022-09-21T04:04:36;10.80;;;5.40;;
41683;SDS011;27369;52.030;4.586;2022-09-21T04:07:02;8.70;;;4.72;;
41683;SDS011;27369;52.030;4.586;2022-09-21T04:09:28;10.90;;;5.50;;
41683;SDS011;27369;52.030;4.586;2022-09-21T04:11:54;7.70;;;4.57;;
41683;SDS011;27369;52.030;4.586;2022-09-21T04:14:19;10.70;;;4.68;;
41683;SDS011;27369;52.030;4.586;2022-09-21T04:16:46;8.85;;;4.32;;
41683;SDS011;27369;52.030;4.586;2022-09-21T04:19:11;10.13;;;5.68;;
41683;SDS011;27369;52.030;4.586;2022-09-21T04:21:37;10.30;;;4.25;;
41683;SDS011;27369;52.030;4.586;2022-09-21T04:24:02;7.95;;;4.07;;
41683;SDS011;27369;52.030;4.586;2022-09-21T04:26:29;5.63;;;3.75;;
41683;SDS011;27369;52.030;4.586;2022-09-21T04:28:56;7.50;;;3.65;;
41683;SDS011;27369;52.030;4.586;2022-09-21T04:31:23;9.68;;;4.07;;
41683;SDS011;27369;52.030;4.586;2022-09-21T04:33:50;5.18;;;3.83;;
41683;SDS011;27369;52.030;4.586;2022-09-21T04:36:16;7.90;;;3.88;;
41683;SDS011;27369;52.030;4.586;2022-09-21T04:38:44;7.00;;;4.45;;
41683;SDS011;27369;52.030;4.586;2022-09-21T04:41:10;8.82;;;4.57;;
41683;SDS011;27369;52.030;4.586;2022-09-21T04:43:36;5.80;;;3.55;;
41683;SDS011;27369;52.030;4.586;2022-09-21T04:46:07;4.80;;;3.25;;
41683;SDS011;27369;52.030;4.586;2022-09-21T04:48:35;7.80;;;3.90;;
41683;SDS011;27369;52.030;4.586;2022-09-21T04:51:01;5.85;;;3.75;;
41683;SDS011;27369;52.030;4.586;2022-09-21T04:53:28;6.63;;;3.88;;
41683;SDS011;27369;52.030;4.586;2022-09-21T04:55:53;9.20;;;4.10;;
41683;SDS011;27369;52.030;4.586;2022-09-21T04:58:20;5.57;;;3.35;;
41683;SDS011;27369;52.030;4.586;2022-09-21T05:00:50;6.07;;;3.85;;
41683;SDS011;27369;52.030;4.586;2022-09-21T05:03:17;5.82;;;3.42;;
41683;SDS011;27369;52.030;4.586;2022-09-21T05:05:50;9.07;;;3.45;;
41683;SDS011;27369;52.030;4.586;2022-09-21T05:08:17;9.55;;;4.50;;
41683;SDS011;27369;52.030;4.586;2022-09-21T05:11:04;7.65;;;4.03;;
41683;SDS011;27369;52.030;4.586;2022-09-21T05:13:30;6.05;;;4.60;;
41683;SDS011;27369;52.030;4.586;2022-09-21T05:15:55;10.70;;;4.65;;
41683;SDS011;27369;52.030;4.586;2022-09-21T05:18:21;10.32;;;4.20;;
41683;SDS011;27369;52.030;4.586;2022-09-21T05:20:52;8.23;;;4.35;;
41683;SDS011;27369;52.030;4.586;2022-09-21T05:23:22;6.88;;;4.38;;
41683;SDS011;27369;52.030;4.586;2022-09-21T05:25:48;7.90;;;4.97;;
41683;SDS011;27369;52.030;4.586;2022-09-21T05:28:14;7.13;;;3.97;;
41683;SDS011;27369;52.030;4.586;2022-09-21T05:33:06;12.93;;;5.90;;
41683;SDS011;27369;52.030;4.586;2022-09-21T05:35:44;11.82;;;4.80;;
41683;SDS011;27369;52.030;4.586;2022-09-21T05:38:23;13.15;;;4.97;;
41683;SDS011;27369;52.030;4.586;2022-09-21T05:40:49;9.40;;;5.28;;
41683;SDS011;27369;52.030;4.586;2022-09-21T05:43:14;7.38;;;4.28;;
41683;SDS011;27369;52.030;4.586;2022-09-21T05:45:51;12.00;;;4.90;;
41683;SDS011;27369;52.030;4.586;2022-09-21T05:48:27;11.52;;;4.82;;
41683;SDS011;27369;52.030;4.586;2022-09-21T06:02:18;9.35;;;4.68;;
41683;SDS011;27369;52.030;4.586;2022-09-21T06:04:44;14.90;;;4.35;;
41683;SDS011;27369;52.030;4.586;2022-09-21T06:07:11;6.68;;;4.93;;
41683;SDS011;27369;52.030;4.586;2022-09-21T06:09:36;13.90;;;5.70;;
41683;SDS011;27369;52.030;4.586;2022-09-21T06:12:02;9.60;;;5.55;;
41683;SDS011;27369;52.030;4.586;2022-09-21T06:14:28;18.07;;;5.73;;
41683;SDS011;27369;52.030;4.586;2022-09-21T06:16:53;9.13;;;5.10;;
41683;SDS011;27369;52.030;4.586;2022-09-21T06:19:19;10.85;;;5.72;;
41683;SDS011;27369;52.030;4.586;2022-09-21T06:21:44;19.38;;;6.63;;
41683;SDS011;27369;52.030;4.586;2022-09-21T06:24:10;15.50;;;5.30;;
41683;SDS011;27369;52.030;4.586;2022-09-21T06:26:36;11.48;;;5.32;;
41683;SDS011;27369;52.030;4.586;2022-09-21T06:29:02;19.83;;;5.18;;
41683;SDS011;27369;52.030;4.586;2022-09-21T06:31:28;11.38;;;5.70;;
41683;SDS011;27369;52.030;4.586;2022-09-21T06:33:53;10.05;;;5.40;;
41683;SDS011;27369;52.030;4.586;2022-09-21T06:36:19;10.23;;;5.13;;
41683;SDS011;27369;52.030;4.586;2022-09-21T06:38:44;8.88;;;5.05;;
41683;SDS011;27369;52.030;4.586;2022-09-21T06:41:10;11.20;;;5.55;;
41683;SDS011;27369;52.030;4.586;2022-09-21T06:43:35;8.48;;;5.20;;
41683;SDS011;27369;52.030;4.586;2022-09-21T06:46:01;11.90;;;5.03;;
41683;SDS011;27369;52.030;4.586;2022-09-21T06:48:27;7.43;;;4.13;;
41683;SDS011;27369;52.030;4.586;2022-09-21T06:51:01;9.82;;;5.10;;
41683;SDS011;27369;52.030;4.586;2022-09-21T06:53:28;11.30;;;4.45;;
41683;SDS011;27369;52.030;4.586;2022-09-21T06:56:07;10.35;;;4.38;;
41683;SDS011;27369;52.030;4.586;2022-09-21T06:58:34;13.05;;;4.07;;
41683;SDS011;27369;52.030;4.586;2022-09-21T07:01:09;11.35;;;3.88;;
41683;SDS011;27369;52.030;4.586;2022-09-21T07:03:36;11.75;;;4.50;;
41683;SDS011;27369;52.030;4.586;2022-09-21T07:06:02;14.85;;;4.07;;
41683;SDS011;27369;52.030;4.586;2022-09-21T07:08:28;11.57;;;4.32;;
41683;SDS011;27369;52.030;4.586;2022-09-21T07:10:56;9.45;;;4.28;;
41683;SDS011;27369;52.030;4.586;2022-09-21T07:13:23;11.23;;;4.40;;
41683;SDS011;27369;52.030;4.586;2022-09-21T07:15:48;14.60;;;5.10;;
41683;SDS011;27369;52.030;4.586;2022-09-21T07:18:14;18.55;;;5.25;;
41683;SDS011;27369;52.030;4.586;2022-09-21T07:20:39;10.05;;;5.03;;
41683;SDS011;27369;52.030;4.586;2022-09-21T07:23:09;10.60;;;5.28;;
41683;SDS011;27369;52.030;4.586;2022-09-21T07:25:35;18.48;;;5.47;;
41683;SDS011;27369;52.030;4.586;2022-09-21T07:28:00;10.63;;;4.03;;
41683;SDS011;27369;52.030;4.586;2022-09-21T07:30:26;17.75;;;4.95;;
41683;SDS011;27369;52.030;4.586;2022-09-21T07:32:51;12.73;;;4.45;;
41683;SDS011;27369;52.030;4.586;2022-09-21T07:35:17;8.38;;;3.90;;
41683;SDS011;27369;52.030;4.586;2022-09-21T07:40:08;7.47;;;3.73;;
41683;SDS011;27369;52.030;4.586;2022-09-21T07:42:34;4.55;;;2.50;;
41683;SDS011;27369;52.030;4.586;2022-09-21T07:44:59;6.65;;;2.90;;
41683;SDS011;27369;52.030;4.586;2022-09-21T07:47:25;6.75;;;2.53;;
41683;SDS011;27369;52.030;4.586;2022-09-21T07:49:51;9.23;;;2.40;;
41683;SDS011;27369;52.030;4.586;2022-09-21T07:52:17;3.42;;;2.35;;
41683;SDS011;27369;52.030;4.586;2022-09-21T07:54:43;8.57;;;2.63;;
41683;SDS011;27369;52.030;4.586;2022-09-21T07:57:09;8.10;;;2.70;;
41683;SDS011;27369;52.030;4.586;2022-09-21T07:59:53;4.90;;;2.60;;
41683;SDS011;27369;52.030;4.586;2022-09-21T08:02:22;5.72;;;2.17;;
41683;SDS011;27369;52.030;4.586;2022-09-21T08:04:48;4.22;;;1.70;;
41683;SDS011;27369;52.030;4.586;2022-09-21T08:07:13;5.75;;;1.70;;
41683;SDS011;27369;52.030;4.586;2022-09-21T08:09:38;7.22;;;1.90;;
41683;SDS011;27369;52.030;4.586;2022-09-21T08:12:04;4.95;;;1.58;;
41683;SDS011;27369;52.030;4.586;2022-09-21T08:14:31;7.03;;;2.00;;
41683;SDS011;27369;52.030;4.586;2022-09-21T08:16:56;6.32;;;2.00;;
41683;SDS011;27369;52.030;4.586;2022-09-21T08:19:22;7.78;;;2.10;;
41683;SDS011;27369;52.030;4.586;2022-09-21T08:21:49;5.75;;;1.52;;
41683;SDS011;27369;52.030;4.586;2022-09-21T08:24:15;5.18;;;1.67;;
41683;SDS011;27369;52.030;4.586;2022-09-21T08:26:41;3.47;;;1.10;;
41683;SDS011;27369;52.030;4.586;2022-09-21T08:29:06;6.13;;;1.33;;
41683;SDS011;27369;52.030;4.586;2022-09-21T08:31:32;4.78;;;0.80;;
41683;SDS011;27369;52.030;4.586;2022-09-21T08:33:58;10.95;;;1.95;;
41683;SDS011;27369;52.030;4.586;2022-09-21T08:36:24;6.80;;;1.10;;
41683;SDS011;27369;52.030;4.586;2022-09-21T08:38:50;2.47;;;0.85;;
41683;SDS011;27369;52.030;4.586;2022-09-21T08:41:23;4.63;;;0.82;;
41683;SDS011;27369;52.030;4.586;2022-09-21T08:44:03;7.65;;;1.33;;
41683;SDS011;27369;52.030;4.586;2022-09-21T08:49:05;2.80;;;1.10;;
41683;SDS011;27369;52.030;4.586;2022-09-21T08:51:40;3.72;;;0.90;;
41683;SDS011;27369;52.030;4.586;2022-09-21T08:54:16;5.95;;;0.90;;
41683;SDS011;27369;52.030;4.586;2022-09-21T08:56:49;7.28;;;1.00;;
41683;SDS011;27369;52.030;4.586;2022-09-21T08:59:14;4.53;;;1.10;;
41683;SDS011;27369;52.030;4.586;2022-09-21T09:09:41;4.72;;;0.90;;
41683;SDS011;27369;52.030;4.586;2022-09-21T09:17:50;4.05;;;0.60;;
41683;SDS011;27369;52.030;4.586;2022-09-21T09:20:44;7.30;;;1.08;;
41683;SDS011;27369;52.030;4.586;2022-09-21T09:23:18;5.78;;;1.40;;
41683;SDS011;27369;52.030;4.586;2022-09-21T09:25:50;3.22;;;0.68;;
41683;SDS011;27369;52.030;4.586;2022-09-21T09:31:37;3.17;;;0.93;;
41683;SDS011;27369;52.030;4.586;2022-09-21T09:37:14;4.15;;;0.93;;
41683;SDS011;27369;52.030;4.586;2022-09-21T09:39:41;8.93;;;0.98;;
41683;SDS011;27369;52.030;4.586;2022-09-21T09:50:16;6.05;;;0.88;;
41683;SDS011;27369;52.030;4.586;2022-09-21T09:52:52;6.78;;;1.00;;
41683;SDS011;27369;52.030;4.586;2022-09-21T09:55:33;6.95;;;1.08;;
41683;SDS011;27369;52.030;4.586;2022-09-21T09:58:02;3.92;;;0.82;;
41683;SDS011;27369;52.030;4.586;2022-09-21T10:00:28;2.83;;;0.60;;
41683;SDS011;27369;52.030;4.586;2022-09-21T10:02:54;4.82;;;0.85;;
41683;SDS011;27369;52.030;4.586;2022-09-21T10:05:35;9.43;;;0.80;;
41683;SDS011;27369;52.030;4.586;2022-09-21T10:08:05;4.18;;;0.80;;
41683;SDS011;27369;52.030;4.586;2022-09-21T10:10:50;4.35;;;0.80;;
41683;SDS011;27369;52.030;4.586;2022-09-21T10:13:18;2.10;;;0.50;;
41683;SDS011;27369;52.030;4.586;2022-09-21T10:15:59;3.83;;;0.70;;
41683;SDS011;27369;52.030;4.586;2022-09-21T10:21:26;5.70;;;0.90;;
41683;SDS011;27369;52.030;4.586;2022-09-21T10:24:19;5.47;;;0.70;;
41683;SDS011;27369;52.030;4.586;2022-09-21T10:31:57;3.83;;;0.75;;
41683;SDS011;27369;52.030;4.586;2022-09-21T10:34:30;6.18;;;0.95;;
41683;SDS011;27369;52.030;4.586;2022-09-21T10:36:58;4.05;;;0.90;;
41683;SDS011;27369;52.030;4.586;2022-09-21T10:39:27;4.22;;;0.82;;
41683;SDS011;27369;52.030;4.586;2022-09-21T10:44:37;4.65;;;0.60;;
41683;SDS011;27369;52.030;4.586;2022-09-21T10:47:15;6.65;;;1.20;;
41683;SDS011;27369;52.030;4.586;2022-09-21T10:49:45;4.35;;;0.65;;
41683;SDS011;27369;52.030;4.586;2022-09-21T10:52:14;4.80;;;0.95;;
41683;SDS011;27369;52.030;4.586;2022-09-21T10:54:43;6.85;;;0.70;;
41683;SDS011;27369;52.030;4.586;2022-09-21T10:57:14;3.83;;;0.60;;
41683;SDS011;27369;52.030;4.586;2022-09-21T10:59:42;2.35;;;0.63;;
41683;SDS011;27369;52.030;4.586;2022-09-21T11:05:15;2.47;;;0.57;;
41683;SDS011;27369;52.030;4.586;2022-09-21T11:10:41;2.90;;;0.52;;
41683;SDS011;27369;52.030;4.586;2022-09-21T11:13:16;6.13;;;1.10;;
41683;SDS011;27369;52.030;4.586;2022-09-21T11:26:58;3.88;;;0.80;;
41683;SDS011;27369;52.030;4.586;2022-09-21T11:38:12;3.40;;;0.90;;
41683;SDS011;27369;52.030;4.586;2022-09-21T11:48:53;2.95;;;0.68;;
41683;SDS011;27369;52.030;4.586;2022-09-21T11:57:22;3.65;;;0.80;;
41683;SDS011;27369;52.030;4.586;2022-09-21T12:05:19;8.80;;;2.95;;
41683;SDS011;27369;52.030;4.586;2022-09-21T12:10:47;4.50;;;1.30;;
41683;SDS011;27369;52.030;4.586;2022-09-21T12:13:39;4.15;;;1.00;;
41683;SDS011;27369;52.030;4.586;2022-09-21T12:16:15;3.28;;;0.60;;
41683;SDS011;27369;52.030;4.586;2022-09-21T12:19:01;4.03;;;0.80;;
41683;SDS011;27369;52.030;4.586;2022-09-21T12:21:34;4.50;;;0.88;;
41683;SDS011;27369;52.030;4.586;2022-09-21T12:24:08;2.63;;;0.60;;
41683;SDS011;27369;52.030;4.586;2022-09-21T12:26:46;3.42;;;0.60;;
41683;SDS011;27369;52.030;4.586;2022-09-21T12:29:32;2.65;;;0.50;;
41683;SDS011;27369;52.030;4.586;2022-09-21T12:32:04;6.75;;;0.73;;
41683;SDS011;27369;52.030;4.586;2022-09-21T12:34:39;4.93;;;1.08;;
41683;SDS011;27369;52.030;4.586;2022-09-21T12:37:12;3.10;;;0.82;;
41683;SDS011;27369;52.030;4.586;2022-09-21T12:39:48;2.72;;;0.60;;
41683;SDS011;27369;52.030;4.586;2022-09-21T12:42:23;1.88;;;0.45;;
41683;SDS011;27369;52.030;4.586;2022-09-21T12:44:54;2.90;;;0.43;;
41683;SDS011;27369;52.030;4.586;2022-09-21T12:51:00;2.28;;;0.52;;
41683;SDS011;27369;52.030;4.586;2022-09-21T12:53:25;2.42;;;0.70;;
41683;SDS011;27369;52.030;4.586;2022-09-21T12:55:59;1.90;;;0.70;;
41683;SDS011;27369;52.030;4.586;2022-09-21T13:01:21;5.25;;;0.63;;
41683;SDS011;27369;52.030;4.586;2022-09-21T13:09:09;2.30;;;0.63;;
41683;SDS011;27369;52.030;4.586;2022-09-21T13:11:52;4.68;;;1.20;;
41683;SDS011;27369;52.030;4.586;2022-09-21T13:14:25;4.70;;;0.90;;
41683;SDS011;27369;52.030;4.586;2022-09-21T13:16:54;5.45;;;0.80;;
41683;SDS011;27369;52.030;4.586;2022-09-21T13:19:23;2.55;;;0.93;;
41683;SDS011;27369;52.030;4.586;2022-09-21T13:24:37;3.67;;;0.45;;
41683;SDS011;27369;52.030;4.586;2022-09-21T13:27:04;3.13;;;0.75;;
41683;SDS011;27369;52.030;4.586;2022-09-21T13:29:35;2.95;;;0.60;;
41683;SDS011;27369;52.030;4.586;2022-09-21T13:34:35;5.30;;;0.70;;
41683;SDS011;27369;52.030;4.586;2022-09-21T13:44:57;3.67;;;0.50;;
41683;SDS011;27369;52.030;4.586;2022-09-21T13:47:41;3.05;;;0.55;;
41683;SDS011;27369;52.030;4.586;2022-09-21T13:52:54;4.90;;;0.68;;
41683;SDS011;27369;52.030;4.586;2022-09-21T13:55:27;2.40;;;0.40;;
41683;SDS011;27369;52.030;4.586;2022-09-21T13:57:55;4.82;;;0.60;;
41683;SDS011;27369;52.030;4.586;2022-09-21T14:00:27;2.70;;;0.63;;
41683;SDS011;27369;52.030;4.586;2022-09-21T14:03:06;3.17;;;0.80;;
41683;SDS011;27369;52.030;4.586;2022-09-21T14:05:51;3.40;;;0.63;;
41683;SDS011;27369;52.030;4.586;2022-09-21T14:08:28;2.90;;;0.60;;
41683;SDS011;27369;52.030;4.586;2022-09-21T14:13:38;3.28;;;0.65;;
41683;SDS011;27369;52.030;4.586;2022-09-21T14:18:58;3.08;;;0.52;;
41683;SDS011;27369;52.030;4.586;2022-09-21T14:21:29;2.83;;;0.50;;
41683;SDS011;27369;52.030;4.586;2022-09-21T14:24:40;4.10;;;0.45;;
41683;SDS011;27369;52.030;4.586;2022-09-21T14:26:46;3.85;;;0.77;;
41683;SDS011;27369;52.030;4.586;2022-09-21T14:31:48;3.35;;;0.52;;
41683;SDS011;27369;52.030;4.586;2022-09-21T14:34:19;3.92;;;0.80;;
41683;SDS011;27369;52.030;4.586;2022-09-21T14:36:49;1.35;;;0.47;;
41683;SDS011;27369;52.030;4.586;2022-09-21T14:41:51;2.75;;;0.35;;
41683;SDS011;27369;52.030;4.586;2022-09-21T14:44:24;3.28;;;0.70;;
41683;SDS011;27369;52.030;4.586;2022-09-21T14:52:06;4.00;;;0.60;;
41683;SDS011;27369;52.030;4.586;2022-09-21T14:57:36;4.22;;;0.65;;
41683;SDS011;27369;52.030;4.586;2022-09-21T15:00:38;4.53;;;0.85;;
41683;SDS011;27369;52.030;4.586;2022-09-21T15:05:54;3.15;;;0.57;;
41683;SDS011;27369;52.030;4.586;2022-09-21T15:11:30;3.75;;;0.70;;
41683;SDS011;27369;52.030;4.586;2022-09-21T15:17:00;3.85;;;0.80;;
41683;SDS011;27369;52.030;4.586;2022-09-21T15:19:47;3.70;;;0.80;;
41683;SDS011;27369;52.030;4.586;2022-09-21T15:22:18;3.30;;;0.63;;
41683;SDS011;27369;52.030;4.586;2022-09-21T15:27:14;2.78;;;0.68;;
41683;SDS011;27369;52.030;4.586;2022-09-21T15:29:42;2.75;;;0.50;;
41683;SDS011;27369;52.030;4.586;2022-09-21T15:35:25;2.70;;;0.43;;
41683;SDS011;27369;52.030;4.586;2022-09-21T15:37:55;4.22;;;1.35;;
41683;SDS011;27369;52.030;4.586;2022-09-21T15:45:50;2.28;;;0.40;;
41683;SDS011;27369;52.030;4.586;2022-09-21T15:48:39;2.58;;;0.50;;
41683;SDS011;27369;52.030;4.586;2022-09-21T15:51:15;4.13;;;0.70;;
41683;SDS011;27369;52.030;4.586;2022-09-21T15:54:00;2.97;;;0.68;;
41683;SDS011;27369;52.030;4.586;2022-09-21T15:56:32;2.42;;;0.40;;
41683;SDS011;27369;52.030;4.586;2022-09-21T15:59:04;3.42;;;0.90;;
41683;SDS011;27369;52.030;4.586;2022-09-21T16:01:40;1.83;;;0.50;;
41683;SDS011;27369;52.030;4.586;2022-09-21T16:04:10;1.13;;;0.50;;
41683;SDS011;27369;52.030;4.586;2022-09-21T16:06:38;2.92;;;0.70;;
41683;SDS011;27369;52.030;4.586;2022-09-21T16:11:50;4.65;;;0.98;;
41683;SDS011;27369;52.030;4.586;2022-09-21T16:14:17;4.13;;;0.68;;
41683;SDS011;27369;52.030;4.586;2022-09-21T16:22:10;3.70;;;0.80;;
41683;SDS011;27369;52.030;4.586;2022-09-21T16:24:48;1.73;;;0.68;;
41683;SDS011;27369;52.030;4.586;2022-09-21T16:27:17;4.60;;;0.80;;
41683;SDS011;27369;52.030;4.586;2022-09-21T16:29:45;3.13;;;0.70;;
41683;SDS011;27369;52.030;4.586;2022-09-21T16:34:42;8.02;;;0.80;;
41683;SDS011;27369;52.030;4.586;2022-09-21T16:39:51;6.75;;;1.20;;
41683;SDS011;27369;52.030;4.586;2022-09-21T16:42:21;5.43;;;1.02;;
41683;SDS011;27369;52.030;4.586;2022-09-21T16:44:48;6.38;;;1.38;;
41683;SDS011;27369;52.030;4.586;2022-09-21T16:47:15;3.78;;;0.98;;
41683;SDS011;27369;52.030;4.586;2022-09-21T16:49:45;5.80;;;1.10;;
41683;SDS011;27369;52.030;4.586;2022-09-21T16:52:10;4.40;;;1.50;;
41683;SDS011;27369;52.030;4.586;2022-09-21T16:54:36;5.07;;;1.20;;
41683;SDS011;27369;52.030;4.586;2022-09-21T16:57:02;3.50;;;1.25;;
41683;SDS011;27369;52.030;4.586;2022-09-21T16:59:29;6.05;;;1.38;;
41683;SDS011;27369;52.030;4.586;2022-09-21T17:01:57;4.95;;;2.50;;
41683;SDS011;27369;52.030;4.586;2022-09-21T17:04:24;4.55;;;1.10;;
41683;SDS011;27369;52.030;4.586;2022-09-21T17:06:54;5.88;;;0.90;;
41683;SDS011;27369;52.030;4.586;2022-09-21T17:09:25;4.38;;;1.15;;
41683;SDS011;27369;52.030;4.586;2022-09-21T17:11:57;3.22;;;0.98;;
41683;SDS011;27369;52.030;4.586;2022-09-21T17:14:25;5.57;;;0.93;;
41683;SDS011;27369;52.030;4.586;2022-09-21T17:16:53;7.00;;;1.42;;
41683;SDS011;27369;52.030;4.586;2022-09-21T17:19:22;3.50;;;0.98;;
41683;SDS011;27369;52.030;4.586;2022-09-21T17:21:49;6.32;;;1.40;;
41683;SDS011;27369;52.030;4.586;2022-09-21T17:24:14;5.18;;;0.88;;
41683;SDS011;27369;52.030;4.586;2022-09-21T17:26:41;2.97;;;0.70;;
41683;SDS011;27369;52.030;4.586;2022-09-21T17:29:26;5.78;;;0.70;;
41683;SDS011;27369;52.030;4.586;2022-09-21T17:31:53;2.55;;;1.00;;
41683;SDS011;27369;52.030;4.586;2022-09-21T17:34:24;4.50;;;0.75;;
41683;SDS011;27369;52.030;4.586;2022-09-21T17:36:51;4.13;;;0.90;;
41683;SDS011;27369;52.030;4.586;2022-09-21T17:39:18;4.32;;;0.90;;
41683;SDS011;27369;52.030;4.586;2022-09-21T17:49:43;6.05;;;0.93;;
41683;SDS011;27369;52.030;4.586;2022-09-21T17:55:11;4.13;;;0.80;;
41683;SDS011;27369;52.030;4.586;2022-09-21T18:03:28;4.00;;;1.00;;
41683;SDS011;27369;52.030;4.586;2022-09-21T18:05:56;4.15;;;1.15;;
41683;SDS011;27369;52.030;4.586;2022-09-21T18:08:25;4.20;;;0.80;;
41683;SDS011;27369;52.030;4.586;2022-09-21T18:13:23;4.35;;;0.90;;
41683;SDS011;27369;52.030;4.586;2022-09-21T18:15:55;4.40;;;0.90;;
41683;SDS011;27369;52.030;4.586;2022-09-21T18:21:04;5.13;;;2.72;;
41683;SDS011;27369;52.030;4.586;2022-09-21T18:23:47;6.07;;;1.27;;
41683;SDS011;27369;52.030;4.586;2022-09-21T18:26:30;5.30;;;1.50;;
41683;SDS011;27369;52.030;4.586;2022-09-21T18:28:57;7.45;;;1.77;;
41683;SDS011;27369;52.030;4.586;2022-09-21T18:34:21;9.23;;;2.20;;
41683;SDS011;27369;52.030;4.586;2022-09-21T18:37:13;6.55;;;1.65;;
41683;SDS011;27369;52.030;4.586;2022-09-21T18:42:42;5.28;;;1.42;;
41683;SDS011;27369;52.030;4.586;2022-09-21T18:45:19;6.88;;;1.90;;
41683;SDS011;27369;52.030;4.586;2022-09-21T18:50:37;4.00;;;1.40;;
41683;SDS011;27369;52.030;4.586;2022-09-21T18:53:33;4.90;;;1.80;;
41683;SDS011;27369;52.030;4.586;2022-09-21T18:56:09;4.30;;;1.75;;
41683;SDS011;27369;52.030;4.586;2022-09-21T18:58:36;6.03;;;1.83;;
41683;SDS011;27369;52.030;4.586;2022-09-21T19:01:02;8.27;;;2.10;;
41683;SDS011;27369;52.030;4.586;2022-09-21T19:03:29;8.40;;;2.72;;
41683;SDS011;27369;52.030;4.586;2022-09-21T19:08:43;4.07;;;1.63;;
41683;SDS011;27369;52.030;4.586;2022-09-21T19:14:11;10.73;;;3.45;;
41683;SDS011;27369;52.030;4.586;2022-09-21T19:21:41;12.30;;;3.92;;
41683;SDS011;27369;52.030;4.586;2022-09-21T19:24:23;10.48;;;3.53;;